Time;durP1;ratioP1;P1;durP2;ratioP2;P2;SDS_P1;SDS_P2;PMS_P1;PMS_P2;Temp;Humidity;BMP_temperature;BMP_pressure;BME280_temperature;BME280_humidity;BME280_pressure;Samples;Min_cycle;Max_cycle;Signal;HPM_P1;HPM_P2
2022/04/16 00:02:08;;;;;;;41.80;23.30;;;6.90;99.90;;;;;;4366732;28;658961;-90
2022/04/16 00:04:57;;;;;;;41.30;23.20;;;6.90;99.90;;;;;;4367324;28;658784;-89
2022/04/16 00:07:44;;;;;;;43.90;22.87;;;6.90;99.90;;;;;;4383142;28;658408;-90
2022/04/16 00:10:32;;;;;;;39.47;22.03;;;6.90;99.90;;;;;;4358855;28;658801;-90
2022/04/16 00:13:21;;;;;;;39.23;22.90;;;6.90;99.90;;;;;;4383848;28;658839;-90
2022/04/16 00:16:09;;;;;;;37.20;20.40;;;6.90;99.90;;;;;;4358302;28;659042;-90
2022/04/16 00:18:56;;;;;;;33.20;18.77;;;6.90;99.90;;;;;;4360461;28;658327;-89
2022/04/16 00:21:44;;;;;;;30.43;17.23;;;6.90;99.90;;;;;;4378888;28;658847;-90
2022/04/16 00:24:31;;;;;;;30.10;15.80;;;6.90;99.90;;;;;;4362454;28;658404;-90
2022/04/16 00:27:18;;;;;;;32.80;17.63;;;6.90;99.90;;;;;;4386463;28;659448;-89
2022/04/16 00:30:08;;;;;;;36.27;18.90;;;6.80;99.90;;;;;;4362973;28;658790;-89
2022/04/16 00:32:57;;;;;;;32.40;18.27;;;6.80;99.90;;;;;;4364817;28;658338;-89
2022/04/16 00:35:44;;;;;;;31.17;17.40;;;6.80;99.90;;;;;;4380789;28;658547;-89
2022/04/16 00:38:32;;;;;;;31.77;17.97;;;6.80;99.90;;;;;;4361434;28;658882;-89
2022/04/16 00:41:19;;;;;;;33.03;19.03;;;6.80;99.90;;;;;;4386505;28;658456;-89
2022/04/16 00:44:06;;;;;;;28.65;16.42;;;6.80;99.90;;;;;;4365740;28;658974;-89
2022/04/16 00:46:55;;;;;;;23.50;13.77;;;6.80;99.90;;;;;;4368480;28;658858;-89
2022/04/16 00:49:43;;;;;;;18.73;11.00;;;6.80;99.90;;;;;;4356618;28;658876;-90
2022/04/16 00:52:30;;;;;;;14.98;10.10;;;6.70;99.90;;;;;;4368786;28;658927;-91
2022/04/16 00:55:18;;;;;;;14.43;9.27;;;6.70;99.90;;;;;;4381680;28;658989;-89
2022/04/16 00:58:05;;;;;;;16.00;8.97;;;6.70;99.90;;;;;;4366717;28;657539;-90
2022/04/16 01:00:53;;;;;;;17.37;9.20;;;6.60;99.90;;;;;;4383878;28;658732;-93
2022/04/16 01:03:43;;;;;;;13.70;9.07;;;6.60;99.90;;;;;;4365685;28;658326;-91
2022/04/16 01:06:36;;;;;;;17.53;9.30;;;6.60;99.90;;;;;;4376938;28;657985;-89
2022/04/16 01:09:24;;;;;;;14.43;8.70;;;6.60;99.90;;;;;;4359925;28;658047;-89
2022/04/16 01:12:11;;;;;;;13.17;7.23;;;6.50;99.90;;;;;;4368697;28;657777;-90
2022/04/16 01:14:59;;;;;;;12.97;7.90;;;6.50;99.90;;;;;;4379272;28;657759;-90
2022/04/16 01:17:46;;;;;;;17.23;7.70;;;6.50;99.90;;;;;;4357201;28;657907;-89
2022/04/16 01:20:36;;;;;;;11.43;6.20;;;6.50;99.90;;;;;;4381955;28;658405;-88
2022/04/16 01:23:25;;;;;;;9.57;5.40;;;6.40;99.90;;;;;;4369292;28;657905;-88
2022/04/16 01:26:13;;;;;;;8.50;5.30;;;6.30;99.90;;;;;;4356206;28;656742;-88
2022/04/16 01:29:02;;;;;;;9.30;5.47;;;6.20;99.90;;;;;;4360811;28;656706;-90
2022/04/16 01:31:50;;;;;;;11.40;5.97;;;6.10;99.90;;;;;;4387275;28;656652;-89
2022/04/16 01:34:37;;;;;;;8.40;5.20;;;6.00;99.90;;;;;;4364050;28;658133;-88
2022/04/16 01:37:24;;;;;;;8.77;5.10;;;6.00;99.90;;;;;;4387712;28;656405;-88
2022/04/16 01:40:15;;;;;;;6.90;3.97;;;6.00;99.90;;;;;;4363609;28;657558;-89
2022/04/16 01:43:02;;;;;;;8.70;5.50;;;6.00;99.90;;;;;;4366301;28;656977;-87
2022/04/16 01:45:50;;;;;;;9.27;5.60;;;5.90;99.90;;;;;;4374816;28;657008;-87
2022/04/16 01:48:37;;;;;;;10.20;6.10;;;5.90;99.90;;;;;;4363323;28;657193;-87
2022/04/16 01:51:25;;;;;;;10.03;5.33;;;5.90;99.90;;;;;;4386940;28;658530;-87
2022/04/16 01:54:12;;;;;;;10.30;5.43;;;5.80;99.90;;;;;;4372348;28;658307;-88
2022/04/16 01:57:01;;;;;;;9.20;6.33;;;5.80;99.90;;;;;;4388992;28;657664;-88
2022/04/16 01:59:48;;;;;;;10.70;6.20;;;5.90;99.90;;;;;;4370635;28;656582;-88
2022/04/16 02:02:36;;;;;;;9.13;5.73;;;5.80;99.90;;;;;;4365530;28;657537;-88
2022/04/16 02:05:24;;;;;;;9.93;6.50;;;5.80;99.90;;;;;;4393202;28;657432;-88
2022/04/16 02:08:12;;;;;;;8.87;5.87;;;5.80;99.90;;;;;;4370021;28;656877;-87
2022/04/16 02:10:59;;;;;;;9.50;4.87;;;5.70;99.90;;;;;;4391774;28;656279;-88
2022/04/16 02:13:48;;;;;;;7.20;4.63;;;5.70;99.90;;;;;;4369107;28;656846;-89
2022/04/16 02:16:35;;;;;;;8.97;4.70;;;5.70;99.90;;;;;;4375112;28;657771;-88
2022/04/16 02:19:23;;;;;;;7.17;4.63;;;5.70;99.90;;;;;;4386681;28;657173;-87
2022/04/16 02:22:11;;;;;;;5.93;4.00;;;5.60;99.90;;;;;;4366328;28;656402;-89
2022/04/16 02:25:04;;;;;;;8.30;4.20;;;5.60;99.90;;;;;;4385022;28;656670;-89
2022/04/16 02:27:52;;;;;;;6.17;4.00;;;5.60;99.90;;;;;;4372583;28;656538;-88
2022/04/16 02:30:41;;;;;;;6.50;3.70;;;5.60;99.90;;;;;;4390946;28;657546;-88
2022/04/16 02:33:28;;;;;;;6.03;3.70;;;5.50;99.90;;;;;;4367620;28;656701;-89
2022/04/16 02:36:16;;;;;;;5.73;2.97;;;5.50;99.90;;;;;;4368091;28;656176;-89
2022/04/16 02:39:03;;;;;;;5.10;3.40;;;5.50;99.90;;;;;;4381571;28;657114;-89
2022/04/16 02:41:51;;;;;;;4.10;2.97;;;5.40;99.90;;;;;;4369040;28;656806;-87
2022/04/16 02:47:44;;;;;;;6.33;3.30;;;5.40;99.90;;;;;;4370640;28;657944;-90
2022/04/16 02:50:31;;;;;;;3.13;2.10;;;5.40;99.90;;;;;;4367363;28;658066;-89
2022/04/16 02:53:19;;;;;;;3.87;2.57;;;5.20;99.90;;;;;;4391858;28;656823;-89
2022/04/16 02:56:06;;;;;;;3.13;2.47;;;5.20;99.90;;;;;;4366994;28;656885;-89
2022/04/16 02:58:54;;;;;;;5.73;3.60;;;5.20;99.90;;;;;;4392804;28;657656;-88
2022/04/16 03:01:41;;;;;;;3.93;2.63;;;5.10;99.90;;;;;;4372963;28;656620;-88
2022/04/16 03:04:30;;;;;;;3.17;2.13;;;5.10;99.90;;;;;;4392713;28;657208;-88
2022/04/16 03:07:18;;;;;;;6.33;3.07;;;5.00;99.90;;;;;;4370632;28;657137;-88
2022/04/16 03:10:06;;;;;;;3.60;2.73;;;5.00;99.90;;;;;;4376934;28;656805;-88
2022/04/16 03:12:55;;;;;;;3.87;2.90;;;5.00;99.90;;;;;;4391421;28;656608;-88
2022/04/16 03:18:47;;;;;;;5.73;3.30;;;5.00;99.90;;;;;;4363333;28;657158;-88
2022/04/16 03:21:36;;;;;;;3.77;3.20;;;5.00;99.90;;;;;;4389459;28;656170;-88
2022/04/16 03:24:24;;;;;;;4.87;3.00;;;4.90;99.90;;;;;;4366981;28;657163;-89
2022/04/16 03:27:11;;;;;;;4.57;3.03;;;4.90;99.90;;;;;;4371497;28;656626;-89
2022/04/16 03:29:59;;;;;;;4.47;3.10;;;4.90;99.90;;;;;;4377342;28;656603;-89
2022/04/16 03:32:48;;;;;;;6.27;3.27;;;5.00;99.90;;;;;;4350053;28;657004;-89
2022/04/16 03:35:35;;;;;;;5.47;3.53;;;4.90;99.90;;;;;;4361996;28;657080;-89
2022/04/16 03:38:24;;;;;;;6.47;3.93;;;4.90;99.90;;;;;;4380139;28;657418;-89
2022/04/16 03:41:13;;;;;;;4.23;3.37;;;4.90;99.90;;;;;;4360612;28;656403;-89
2022/04/16 03:44:00;;;;;;;6.60;3.93;;;4.90;99.90;;;;;;4373722;28;656858;-90
2022/04/16 03:46:48;;;;;;;6.03;4.23;;;4.90;99.90;;;;;;4384156;28;656625;-90
2022/04/16 03:49:36;;;;;;;7.13;4.72;;;4.80;99.90;;;;;;4375758;28;656541;-91
2022/04/16 03:52:23;;;;;;;7.23;4.83;;;4.70;99.90;;;;;;4387234;28;656810;-90
2022/04/16 04:01:24;;;;;;;8.27;4.67;;;4.70;99.90;;;;;;4367754;28;656366;-90
2022/04/16 04:04:12;;;;;;;7.47;5.33;;;4.70;99.90;;;;;;4356478;28;656463;-89
2022/04/16 04:06:59;;;;;;;10.33;4.97;;;4.60;99.90;;;;;;4380946;28;656761;-90
2022/04/16 04:09:46;;;;;;;7.37;4.70;;;4.60;99.90;;;;;;4369033;28;657690;-89
2022/04/16 04:12:36;;;;;;;7.03;4.40;;;4.60;99.90;;;;;;4376286;28;656802;-91
2022/04/16 04:15:26;;;;;;;8.40;4.90;;;4.60;99.90;;;;;;4367834;28;656512;-90
2022/04/16 04:18:13;;;;;;;6.30;4.57;;;4.60;99.90;;;;;;4371829;28;657478;-91
2022/04/16 04:21:01;;;;;;;7.33;4.40;;;4.50;99.90;;;;;;4351962;28;656627;-89
2022/04/16 04:23:57;;;;;;;6.33;2.43;;;4.60;99.90;;;;;;4403902;28;656598;-91
2022/04/16 04:26:59;;;;;;;8.33;2.70;;;4.50;99.90;;;;;;4455577;28;657656;-92
2022/04/16 04:29:52;;;;;;;4.13;2.70;;;4.60;99.90;;;;;;4370782;23;655845;-68
2022/04/16 04:35:41;;;;;;;2.80;2.00;;;4.50;99.90;;;;;;4317980;28;656651;-69
2022/04/16 04:38:29;;;;;;;3.50;2.50;;;4.50;99.90;;;;;;4358252;28;656631;-68
2022/04/16 04:41:19;;;;;;;2.37;2.00;;;4.40;99.90;;;;;;4424478;28;654514;-69
2022/04/16 04:44:07;;;;;;;2.97;2.20;;;4.40;99.90;;;;;;4347485;28;656288;-68
2022/04/16 04:46:55;;;;;;;4.23;2.20;;;4.40;99.90;;;;;;4418050;28;656026;-68
2022/04/16 04:49:43;;;;;;;3.20;2.40;;;4.50;99.90;;;;;;4361096;28;657725;-68
2022/04/16 04:52:30;;;;;;;3.20;2.60;;;4.40;99.90;;;;;;4404857;28;656714;-68
2022/04/16 04:55:18;;;;;;;4.13;3.23;;;4.40;99.90;;;;;;4364085;28;658558;-69
2022/04/16 04:58:14;;;;;;;4.00;3.30;;;4.40;99.90;;;;;;4414804;28;657445;-68
2022/04/16 05:01:04;;;;;;;4.47;3.33;;;4.40;99.90;;;;;;4358179;28;658396;-68
2022/04/16 05:03:56;;;;;;;4.10;3.13;;;4.40;99.90;;;;;;4397346;28;656060;-69
2022/04/16 05:06:58;;;;;;;5.90;3.50;;;4.40;99.90;;;;;;4283460;28;656578;-68
2022/04/16 05:09:45;;;;;;;5.30;3.90;;;4.50;99.90;;;;;;4313818;28;656668;-68
2022/04/16 05:12:33;;;;;;;6.90;4.30;;;4.50;99.90;;;;;;4378367;28;658009;-69
2022/04/16 05:15:20;;;;;;;8.30;5.20;;;4.50;99.90;;;;;;4358240;28;656782;-68
2022/04/16 05:18:08;;;;;;;8.03;5.17;;;4.60;99.90;;;;;;4392949;28;656113;-68
2022/04/16 05:20:57;;;;;;;10.63;5.40;;;4.60;99.90;;;;;;4352695;28;658156;-68
2022/04/16 05:23:44;;;;;;;7.20;4.93;;;4.50;99.90;;;;;;4360649;28;658199;-68
2022/04/16 05:26:31;;;;;;;7.15;4.20;;;4.60;99.90;;;;;;4345329;28;656783;-68
2022/04/16 05:29:19;;;;;;;5.77;4.13;;;4.60;99.90;;;;;;4363663;28;656858;-67
2022/04/16 05:32:07;;;;;;;6.73;3.80;;;4.60;99.90;;;;;;4343015;28;656861;-67
2022/04/16 05:34:56;;;;;;;6.20;4.50;;;4.70;99.90;;;;;;4359266;28;656391;-68
2022/04/16 05:37:45;;;;;;;5.57;4.03;;;4.80;99.90;;;;;;4362826;28;657056;-68
2022/04/16 05:40:32;;;;;;;6.17;4.60;;;4.80;99.90;;;;;;4344490;28;657146;-67
2022/04/16 05:43:20;;;;;;;3.93;2.93;;;4.70;99.90;;;;;;4365161;28;655983;-67
2022/04/16 05:46:07;;;;;;;5.60;4.03;;;4.70;99.90;;;;;;4339315;28;657748;-68
2022/04/16 05:48:54;;;;;;;6.17;4.80;;;4.80;99.90;;;;;;4367372;28;656349;-67
2022/04/16 05:51:42;;;;;;;7.07;4.17;;;4.60;99.90;;;;;;4342542;28;657323;-67
2022/04/16 05:54:30;;;;;;;5.87;4.07;;;4.60;99.90;;;;;;4361025;28;656892;-68
2022/04/16 05:57:18;;;;;;;6.30;4.53;;;4.60;99.90;;;;;;4330297;28;657957;-67
2022/04/16 06:00:07;;;;;;;5.45;4.22;;;4.60;99.90;;;;;;4331302;28;656833;-67
2022/04/16 06:02:54;;;;;;;7.77;4.97;;;4.60;99.90;;;;;;4349976;28;657725;-68
2022/04/16 06:05:41;;;;;;;6.40;4.00;;;4.50;99.90;;;;;;4328323;28;656534;-67
2022/04/16 06:08:29;;;;;;;7.83;5.30;;;4.40;99.90;;;;;;4346477;28;656837;-67
2022/04/16 06:11:19;;;;;;;10.03;6.13;;;4.40;99.90;;;;;;4327686;28;656431;-68
2022/04/16 06:14:07;;;;;;;10.13;6.63;;;4.40;99.90;;;;;;4327018;28;657581;-68
2022/04/16 06:16:54;;;;;;;9.77;6.47;;;4.30;99.90;;;;;;4364410;28;657889;-67
2022/04/16 06:19:42;;;;;;;9.50;6.67;;;4.30;99.90;;;;;;4340841;28;656944;-68
2022/04/16 06:22:29;;;;;;;12.03;6.90;;;4.30;99.90;;;;;;4362809;28;656279;-67
2022/04/16 06:25:16;;;;;;;14.15;9.60;;;4.30;99.90;;;;;;4343208;28;657697;-68
2022/04/16 06:28:06;;;;;;;11.13;7.17;;;4.30;99.90;;;;;;4360379;28;658044;-67
2022/04/16 06:30:53;;;;;;;12.07;7.87;;;4.30;99.90;;;;;;4335694;28;657983;-68
2022/04/16 06:33:40;;;;;;;12.02;8.07;;;4.20;99.90;;;;;;4339920;28;657447;-68
2022/04/16 06:36:28;;;;;;;12.07;7.50;;;4.20;99.90;;;;;;4357614;28;659067;-68
2022/04/16 06:39:15;;;;;;;10.23;7.40;;;4.20;99.90;;;;;;4342037;28;657795;-68
2022/04/16 06:42:03;;;;;;;11.87;6.80;;;4.20;99.90;;;;;;4360793;28;659556;-68
2022/04/16 06:44:52;;;;;;;8.30;5.30;;;4.40;99.90;;;;;;4342779;28;657508;-68
2022/04/16 06:47:39;;;;;;;7.87;5.17;;;4.20;99.90;;;;;;4360688;28;656755;-68
2022/04/16 06:50:28;;;;;;;7.07;4.90;;;4.30;99.90;;;;;;4340133;28;657270;-67
2022/04/16 06:53:15;;;;;;;7.20;4.60;;;4.20;99.90;;;;;;4340247;28;658663;-68
2022/04/16 06:56:03;;;;;;;5.37;4.00;;;4.30;99.90;;;;;;4364159;28;657450;-68
2022/04/16 06:58:51;;;;;;;5.23;3.73;;;4.30;99.90;;;;;;4336302;28;656962;-68
2022/04/16 07:01:39;;;;;;;8.03;5.00;;;4.20;99.90;;;;;;4359241;28;656949;-67
2022/04/16 07:04:27;;;;;;;6.60;4.30;;;4.20;99.90;;;;;;4339563;28;657035;-68
2022/04/16 07:07:14;;;;;;;5.90;4.00;;;4.20;99.90;;;;;;4354703;28;656556;-68
2022/04/16 07:10:01;;;;;;;5.47;3.80;;;4.30;99.90;;;;;;4338931;28;656330;-68
2022/04/16 07:12:50;;;;;;;5.90;3.90;;;4.30;99.90;;;;;;4362055;28;657237;-68
2022/04/16 07:15:37;;;;;;;10.40;4.57;;;4.30;99.90;;;;;;4341135;28;657370;-68
2022/04/16 07:18:26;;;;;;;7.53;4.20;;;4.30;99.90;;;;;;4358344;28;657730;-68
2022/04/16 07:21:13;;;;;;;6.70;3.72;;;4.30;99.90;;;;;;4336631;28;658213;-68
2022/04/16 07:24:01;;;;;;;6.47;3.63;;;4.30;99.90;;;;;;4342927;28;656279;-68
2022/04/16 07:26:48;;;;;;;5.57;3.90;;;4.30;99.90;;;;;;4359122;28;658647;-68
2022/04/16 07:29:35;;;;;;;6.10;3.93;;;4.20;99.90;;;;;;4337235;28;656410;-68
2022/04/16 07:32:23;;;;;;;6.60;3.50;;;4.30;99.90;;;;;;4357378;28;658486;-67
2022/04/16 07:35:12;;;;;;;6.20;4.43;;;4.10;99.90;;;;;;4346599;28;656870;-67
2022/04/16 07:38:00;;;;;;;8.50;4.43;;;4.10;99.90;;;;;;4356587;28;656244;-68
2022/04/16 07:40:48;;;;;;;7.77;5.03;;;4.10;99.90;;;;;;4341730;28;657765;-68
2022/04/16 07:43:35;;;;;;;8.48;5.50;;;4.00;99.90;;;;;;4344975;28;657797;-68
2022/04/16 07:46:25;;;;;;;9.87;5.87;;;4.00;99.90;;;;;;4356959;28;657760;-68
2022/04/16 07:49:13;;;;;;;12.80;6.50;;;4.00;99.90;;;;;;4334202;28;657534;-68
2022/04/16 07:52:02;;;;;;;10.43;6.07;;;4.00;99.90;;;;;;4342548;28;657534;-67
2022/04/16 07:54:49;;;;;;;13.27;7.10;;;3.80;99.90;;;;;;4359725;28;657642;-68
2022/04/16 07:57:36;;;;;;;12.15;8.05;;;3.90;99.90;;;;;;4340517;28;657527;-68
2022/04/16 08:00:24;;;;;;;13.30;8.43;;;3.90;99.90;;;;;;4361672;28;658242;-68
2022/04/16 08:03:11;;;;;;;13.63;7.47;;;3.90;99.90;;;;;;4339204;28;657521;-68
2022/04/16 08:05:58;;;;;;;15.60;8.60;;;3.90;99.90;;;;;;4355462;28;658447;-68
2022/04/16 08:08:47;;;;;;;12.80;8.07;;;3.90;99.90;;;;;;4338268;28;657757;-68
2022/04/16 08:11:34;;;;;;;13.67;7.20;;;4.00;99.90;;;;;;4358047;28;657782;-68
2022/04/16 08:14:23;;;;;;;10.50;7.07;;;3.90;99.90;;;;;;4339676;28;658328;-68
2022/04/16 08:17:10;;;;;;;10.40;6.80;;;3.90;99.90;;;;;;4346272;28;657427;-68
2022/04/16 08:19:58;;;;;;;12.67;7.50;;;3.90;99.90;;;;;;4360293;28;657437;-68
2022/04/16 08:22:46;;;;;;;11.17;7.30;;;3.90;99.90;;;;;;4349098;28;657573;-67
2022/04/16 08:25:47;;;;;;;12.10;6.43;;;4.00;99.90;;;;;;4352423;28;658382;-68
2022/04/16 08:28:34;;;;;;;11.00;6.73;;;4.00;99.90;;;;;;4333792;28;657654;-68
2022/04/16 08:31:22;;;;;;;11.60;7.13;;;4.00;99.90;;;;;;4337724;28;657648;-68
2022/04/16 08:34:09;;;;;;;11.67;6.33;;;4.10;99.90;;;;;;4354084;28;657453;-68
2022/04/16 08:36:56;;;;;;;11.97;7.03;;;4.30;99.90;;;;;;4334969;28;657713;-68
2022/04/16 08:39:44;;;;;;;11.43;6.60;;;4.40;99.90;;;;;;4354076;28;657807;-68
2022/04/16 08:42:33;;;;;;;12.97;6.07;;;4.30;99.90;;;;;;4336222;28;657239;-68
2022/04/16 08:45:20;;;;;;;11.10;6.90;;;4.40;99.90;;;;;;4340732;28;658163;-68
2022/04/16 08:48:09;;;;;;;11.30;7.10;;;4.40;99.90;;;;;;4355799;28;658685;-68
2022/04/16 08:50:57;;;;;;;9.03;6.20;;;4.40;99.90;;;;;;4337040;28;657347;-67
2022/04/16 08:53:44;;;;;;;9.50;6.23;;;4.50;99.90;;;;;;4356518;28;656543;-68
2022/04/16 08:56:33;;;;;;;11.50;6.30;;;4.60;99.90;;;;;;4339753;28;656884;-67
2022/04/16 08:59:22;;;;;;;9.48;6.00;;;4.80;99.90;;;;;;4342222;28;657973;-68
2022/04/16 09:02:09;;;;;;;12.20;6.63;;;4.90;99.90;;;;;;4359651;28;655959;-68
2022/04/16 09:05:03;;;;;;;12.80;6.80;;;5.10;99.90;;;;;;4338935;28;657538;-68
2022/04/16 09:07:52;;;;;;;9.33;6.37;;;5.30;99.90;;;;;;4311174;28;657783;-68
2022/04/16 09:10:43;;;;;;;7.97;5.13;;;5.30;99.90;;;;;;4360425;28;656458;-68
2022/04/16 09:13:31;;;;;;;9.03;6.00;;;5.20;99.90;;;;;;4312571;28;656261;-68
2022/04/16 09:16:20;;;;;;;10.17;6.50;;;5.10;1.00;;;;;;4348000;28;657409;-68
2022/04/16 09:19:12;;;;;;;12.60;7.00;;;5.00;99.90;;;;;;4335355;28;656930;-67
2022/04/16 09:22:00;;;;;;;9.80;5.87;;;4.40;99.90;;;;;;4327167;28;657651;-68
2022/04/16 09:24:47;;;;;;;10.07;6.40;;;4.20;99.90;;;;;;4326568;28;657959;-68
2022/04/16 09:27:41;;;;;;;10.37;6.30;;;4.30;99.90;;;;;;4360308;28;657079;-67
2022/04/16 09:30:30;;;;;;;9.77;6.77;;;4.30;99.90;;;;;;4337125;28;658237;-67
2022/04/16 09:33:19;;;;;;;10.33;6.70;;;4.50;99.90;;;;;;4342213;28;657701;-68
2022/04/16 09:36:06;;;;;;;10.43;6.00;;;4.60;99.90;;;;;;4336337;28;657488;-68
2022/04/16 09:39:04;;;;;;;11.57;7.50;;;4.60;99.90;;;;;;4359308;28;658359;-68
2022/04/16 09:41:52;;;;;;;10.10;6.67;;;4.70;99.90;;;;;;4341099;28;658580;-68
2022/04/16 09:44:39;;;;;;;10.53;6.23;;;4.90;99.90;;;;;;4359398;28;657366;-68
2022/04/16 09:47:26;;;;;;;9.73;5.67;;;4.80;99.90;;;;;;4324571;28;657642;-69
2022/04/16 09:50:15;;;;;;;6.13;4.30;;;5.00;99.90;;;;;;4359508;28;656884;-68
2022/04/16 09:53:03;;;;;;;6.33;4.17;;;5.10;99.90;;;;;;4334175;28;657527;-69
2022/04/16 09:55:51;;;;;;;7.80;4.57;;;5.50;99.90;;;;;;4339833;28;657245;-69
2022/04/16 09:58:40;;;;;;;8.27;4.73;;;6.20;99.90;;;;;;4352928;28;657867;-69
2022/04/16 10:01:28;;;;;;;9.07;4.53;;;7.30;99.90;;;;;;4336086;28;657559;-69
2022/04/16 10:04:16;;;;;;;7.97;4.73;;;6.90;99.90;;;;;;4351772;28;656569;-69
2022/04/16 10:07:05;;;;;;;7.10;4.80;;;6.20;99.90;;;;;;4361828;28;657751;-69
2022/04/16 10:09:53;;;;;;;6.33;3.93;;;5.70;99.90;;;;;;4339119;28;657444;-68
2022/04/16 10:15:54;;;;;;;7.93;4.35;;;5.00;99.90;;;;;;4322660;28;656915;-68
2022/04/16 10:18:42;;;;;;;6.23;4.10;;;4.80;99.90;;;;;;4344989;28;656550;-68
2022/04/16 10:21:33;;;;;;;8.30;4.80;;;4.80;99.90;;;;;;4363285;28;656736;-68
2022/04/16 10:24:28;;;;;;;6.47;4.40;;;5.00;99.90;;;;;;4322074;28;656588;-68
2022/04/16 10:27:18;;;;;;;7.33;3.37;;;5.20;99.90;;;;;;4322427;28;656408;-68
2022/04/16 10:30:10;;;;;;;9.90;4.20;;;5.20;99.90;;;;;;4344275;28;656356;-68
2022/04/16 10:32:57;;;;;;;6.13;3.77;;;5.80;99.90;;;;;;4340787;28;658560;-68
2022/04/16 10:35:51;;;;;;;6.88;3.83;;;5.80;99.90;;;;;;4362828;28;656406;-68
2022/04/16 10:38:40;;;;;;;8.00;3.90;;;5.60;99.90;;;;;;4340618;28;656640;-68
2022/04/16 10:41:29;;;;;;;6.53;3.03;;;5.60;99.90;;;;;;4340108;28;657942;-68
2022/04/16 10:44:16;;;;;;;6.63;3.93;;;5.90;99.90;;;;;;4344079;28;656832;-68
2022/04/16 10:47:04;;;;;;;5.25;3.70;;;6.00;99.90;;;;;;4346518;28;657710;-68
2022/04/16 10:49:57;;;;;;;5.40;3.37;;;6.40;99.90;;;;;;4325935;28;656805;-69
2022/04/16 10:52:55;;;;;;;6.03;3.43;;;6.40;99.90;;;;;;4319963;28;657210;-68
2022/04/16 10:55:49;;;;;;;4.93;2.88;;;6.50;99.90;;;;;;4328216;28;656449;-69
2022/04/16 10:58:38;;;;;;;5.03;2.70;;;6.90;99.90;;;;;;4327933;28;656643;-69
2022/04/16 11:01:26;;;;;;;5.30;2.80;;;6.60;99.90;;;;;;4337870;28;657615;-68
2022/04/16 11:04:14;;;;;;;3.23;2.47;;;6.70;99.90;;;;;;4349053;28;657215;-68
2022/04/16 11:07:02;;;;;;;4.17;2.60;;;6.80;99.90;;;;;;4327364;28;657028;-68
2022/04/16 11:09:51;;;;;;;4.50;2.60;;;7.00;99.90;;;;;;4345833;28;656782;-68
2022/04/16 11:12:38;;;;;;;3.97;2.63;;;8.50;99.90;;;;;;4322777;28;658363;-69
2022/04/16 11:15:27;;;;;;;5.00;2.70;;;9.30;99.90;;;;;;4327189;28;656921;-68
2022/04/16 11:18:14;;;;;;;7.63;2.70;;;9.30;99.90;;;;;;4345517;28;656498;-68
2022/04/16 11:21:01;;;;;;;3.47;2.30;;;9.40;91.70;;;;;;4324697;28;656854;-69
2022/04/16 11:23:50;;;;;;;3.17;2.20;;;9.10;99.90;;;;;;4346321;28;656953;-69
2022/04/16 11:35:57;;;;;;;2.63;1.70;;;10.50;89.10;;;;;;4321338;28;657813;-69
2022/04/16 11:38:46;;;;;;;2.07;1.60;;;9.20;77.50;;;;;;4321671;28;657594;-69
2022/04/16 11:41:33;;;;;;;3.05;1.52;;;9.20;81.50;;;;;;4346179;28;657189;-69
2022/04/16 11:44:34;;;;;;;2.27;1.40;;;9.90;79.30;;;;;;4326456;28;656870;-69
2022/04/16 11:47:22;;;;;;;1.67;1.33;;;10.80;70.50;;;;;;4300041;28;656959;-69
2022/04/16 11:50:13;;;;;;;1.67;1.20;;;11.80;67.60;;;;;;4343381;28;657389;-69
2022/04/16 11:53:01;;;;;;;2.80;1.30;;;11.60;61.20;;;;;;4303159;28;657986;-67
2022/04/16 11:55:48;;;;;;;2.10;1.43;;;12.10;67.90;;;;;;4348010;28;657707;-68
2022/04/16 11:58:36;;;;;;;3.27;1.40;;;11.20;59.20;;;;;;4325870;28;657821;-68
2022/04/16 12:01:23;;;;;;;1.80;1.30;;;11.10;59.70;;;;;;4345603;28;658018;-67
2022/04/16 12:04:11;;;;;;;2.07;1.40;;;10.20;58.60;;;;;;4324497;28;657997;-67
2022/04/16 12:06:59;;;;;;;2.80;1.53;;;10.00;60.50;;;;;;4345867;28;657741;-67
2022/04/16 12:09:47;;;;;;;2.77;1.40;;;10.70;63.60;;;;;;4324789;28;657658;-69
2022/04/16 12:12:42;;;;;;;4.53;1.87;;;10.10;58.10;;;;;;4343251;28;657628;-70
2022/04/16 12:15:30;;;;;;;8.40;2.60;;;9.90;57.40;;;;;;4320697;28;657782;-69
2022/04/16 12:18:19;;;;;;;8.13;2.17;;;11.40;64.30;;;;;;4321907;28;658475;-69
2022/04/16 12:21:07;;;;;;;4.83;1.63;;;12.00;58.40;;;;;;4324815;28;658199;-70
2022/04/16 12:24:05;;;;;;;1.27;1.10;;;12.10;59.30;;;;;;4341495;28;657356;-69
2022/04/16 12:26:52;;;;;;;1.83;1.27;;;10.30;56.40;;;;;;4297939;28;659294;-69
2022/04/16 12:29:40;;;;;;;1.90;1.13;;;9.40;59.80;;;;;;4339936;28;658085;-69
2022/04/16 12:32:28;;;;;;;2.33;1.50;;;8.80;63.30;;;;;;4344103;28;658090;-69
2022/04/16 12:35:15;;;;;;;4.13;2.80;;;8.90;68.20;;;;;;4334470;28;656412;-69
2022/04/16 12:38:03;;;;;;;4.30;2.43;;;9.10;65.80;;;;;;4344188;28;658152;-69
2022/04/16 12:40:53;;;;;;;3.10;1.80;;;9.40;68.50;;;;;;4325831;28;656921;-69
2022/04/16 12:43:41;;;;;;;4.23;1.50;;;10.20;68.20;;;;;;4337840;28;656888;-69
2022/04/16 12:46:28;;;;;;;1.53;1.20;;;10.10;60.30;;;;;;4355311;28;658210;-69
2022/04/16 12:49:19;;;;;;;2.10;1.57;;;9.60;59.00;;;;;;4341497;28;657748;-69
2022/04/16 12:52:07;;;;;;;2.33;1.40;;;10.30;60.10;;;;;;4343452;28;656616;-69
2022/04/16 12:54:54;;;;;;;1.80;1.40;;;10.80;57.70;;;;;;4364022;28;657511;-69
2022/04/16 12:57:44;;;;;;;2.83;1.60;;;10.00;57.50;;;;;;4340928;28;657911;-69
2022/04/16 13:00:34;;;;;;;3.40;1.93;;;9.40;58.50;;;;;;4339563;28;657790;-69
2022/04/16 13:03:21;;;;;;;3.20;1.60;;;9.40;58.90;;;;;;4342787;28;656879;-69
2022/04/16 13:06:09;;;;;;;2.50;1.57;;;9.20;60.00;;;;;;4361287;28;657091;-69
2022/04/16 13:09:00;;;;;;;2.77;1.57;;;10.00;59.80;;;;;;4342282;28;656649;-69
2022/04/16 13:11:50;;;;;;;2.60;1.40;;;9.90;59.70;;;;;;4337055;28;658541;-69
2022/04/16 13:14:39;;;;;;;2.07;1.40;;;9.50;60.00;;;;;;4337451;28;657584;-69
2022/04/16 13:17:27;;;;;;;1.83;1.20;;;9.50;62.00;;;;;;4342586;28;656538;-69
2022/04/16 13:20:14;;;;;;;1.20;1.10;;;9.50;60.20;;;;;;4364600;28;656887;-69
2022/04/16 13:23:01;;;;;;;1.20;1.10;;;10.60;60.70;;;;;;4342416;28;656615;-69
2022/04/16 13:25:49;;;;;;;1.50;1.00;;;12.60;62.30;;;;;;4359643;28;658065;-69
2022/04/16 13:28:36;;;;;;;1.93;1.20;;;12.90;54.00;;;;;;4340799;28;657328;-69
2022/04/16 13:31:25;;;;;;;2.83;1.30;;;12.00;49.60;;;;;;4358961;28;658719;-69
2022/04/16 13:34:12;;;;;;;1.20;1.10;;;10.20;52.10;;;;;;4336453;28;658401;-69
2022/04/16 13:36:59;;;;;;;3.67;1.77;;;9.70;55.00;;;;;;4363974;28;657666;-69
2022/04/16 13:42:52;;;;;;;1.77;1.17;;;9.80;56.70;;;;;;4318802;28;657095;-67
2022/04/16 13:45:39;;;;;;;3.47;1.30;;;9.50;56.10;;;;;;4367899;28;656312;-67
2022/04/16 13:48:28;;;;;;;3.37;1.50;;;9.20;56.10;;;;;;4344350;28;656598;-67
2022/04/16 13:51:15;;;;;;;3.17;1.40;;;9.30;58.60;;;;;;4347926;28;657003;-67
2022/04/16 13:54:03;;;;;;;4.63;1.60;;;9.80;59.20;;;;;;4367492;28;656804;-67
2022/04/16 13:56:51;;;;;;;3.37;1.40;;;9.80;59.20;;;;;;4353298;28;656916;-67
2022/04/16 13:59:38;;;;;;;4.15;1.55;;;9.50;56.40;;;;;;4366951;28;657826;-69
2022/04/16 14:02:26;;;;;;;1.37;1.27;;;9.90;58.10;;;;;;4344223;28;656381;-69
2022/04/16 14:08:20;;;;;;;2.33;1.20;;;10.70;54.00;;;;;;4340500;28;657965;-69
2022/04/16 14:11:07;;;;;;;1.57;1.10;;;9.80;55.50;;;;;;4342808;28;658959;-69
2022/04/16 14:13:54;;;;;;;3.50;1.50;;;9.10;56.00;;;;;;4362426;28;657229;-69
2022/04/16 14:16:42;;;;;;;2.20;1.47;;;9.10;56.90;;;;;;4344365;28;656731;-69
2022/04/16 14:19:29;;;;;;;2.35;1.50;;;8.70;58.60;;;;;;4362571;28;656489;-69
2022/04/16 14:22:18;;;;;;;2.53;1.57;;;8.50;59.00;;;;;;4343791;28;656684;-69
2022/04/16 14:25:06;;;;;;;3.92;2.38;;;8.70;59.00;;;;;;4343263;28;656572;-68
2022/04/16 14:27:54;;;;;;;4.17;1.63;;;8.70;57.40;;;;;;4362308;28;658737;-69
2022/04/16 14:30:42;;;;;;;2.90;1.80;;;9.90;57.60;;;;;;4343227;28;656688;-69
2022/04/16 14:33:32;;;;;;;4.80;2.27;;;10.80;55.00;;;;;;4365708;28;657014;-69
2022/04/16 14:36:20;;;;;;;1.70;1.20;;;11.00;51.60;;;;;;4338036;28;658193;-69
2022/04/16 14:39:08;;;;;;;5.53;2.73;;;10.60;50.10;;;;;;4338851;28;658782;-69
2022/04/16 14:41:57;;;;;;;2.70;1.63;;;10.30;53.80;;;;;;4342206;28;657838;-69
2022/04/16 14:44:51;;;;;;;4.03;1.90;;;9.80;56.30;;;;;;4356901;28;658095;-69
2022/04/16 14:47:38;;;;;;;6.00;2.77;;;9.40;54.90;;;;;;4340539;28;657038;-67
2022/04/16 14:50:26;;;;;;;9.10;3.93;;;9.20;56.30;;;;;;4343604;28;656224;-67
2022/04/16 14:53:13;;;;;;;21.17;8.80;;;9.30;58.00;;;;;;4362239;28;657162;-67
2022/04/16 14:56:02;;;;;;;10.60;4.23;;;10.50;54.30;;;;;;4342678;28;657561;-67
2022/04/16 14:58:49;;;;;;;9.60;3.87;;;10.20;52.00;;;;;;4363126;28;658628;-67
2022/04/16 15:01:36;;;;;;;4.27;2.00;;;9.80;54.50;;;;;;4342588;28;657854;-67
2022/04/16 15:04:24;;;;;;;6.23;2.10;;;9.30;55.30;;;;;;4362260;28;657023;-67
2022/04/16 15:07:11;;;;;;;2.97;1.80;;;8.70;55.30;;;;;;4343676;28;657451;-69